createdAt,value
2018-09-18T00:00:05.866Z,17.70
2018-09-18T00:02:10.712Z,17.60
2018-09-18T00:04:15.495Z,17.60
2018-09-18T00:06:20.340Z,17.60
2018-09-18T00:08:25.210Z,17.60
2018-09-18T00:10:30.094Z,17.60
2018-09-18T00:12:34.974Z,17.60
2018-09-18T00:14:39.754Z,17.50
2018-09-18T00:16:44.608Z,17.50
2018-09-18T00:18:49.627Z,17.60
2018-09-18T00:20:54.484Z,17.50
2018-09-18T00:22:59.349Z,17.60
2018-09-18T00:25:04.157Z,17.50
2018-09-18T00:27:08.967Z,17.50
2018-09-18T00:29:13.838Z,17.50
2018-09-18T00:31:18.654Z,17.50
2018-09-18T00:33:23.547Z,17.50
2018-09-18T00:35:28.381Z,17.50
2018-09-18T00:37:33.238Z,17.50
2018-09-18T00:39:38.149Z,17.50
2018-09-18T00:41:42.977Z,17.50
2018-09-18T00:43:47.933Z,17.50
2018-09-18T00:45:52.928Z,17.60
2018-09-18T00:47:57.871Z,17.50
2018-09-18T00:50:03.525Z,17.50
2018-09-18T00:52:08.853Z,17.50
2018-09-18T00:54:14.572Z,17.50
2018-09-18T00:56:20.145Z,17.50
2018-09-18T00:58:26.451Z,17.50
2018-09-18T01:00:31.420Z,17.50
2018-09-18T01:02:36.913Z,17.50
2018-09-18T01:04:42.260Z,17.40
2018-09-18T01:06:47.466Z,17.40
2018-09-18T01:08:52.911Z,17.40
2018-09-18T01:10:59.609Z,17.30
2018-09-18T01:13:05.124Z,17.40
2018-09-18T01:15:10.782Z,17.40
2018-09-18T01:17:16.148Z,17.40
2018-09-18T01:19:21.747Z,17.40
2018-09-18T01:21:27.252Z,17.40
2018-09-18T01:23:32.363Z,17.30
2018-09-18T01:25:37.730Z,17.30
2018-09-18T01:27:50.722Z,17.40
2018-09-18T01:29:55.901Z,17.30
2018-09-18T01:32:00.981Z,17.40
2018-09-18T01:34:05.809Z,17.40
2018-09-18T01:36:10.621Z,17.40
2018-09-18T01:38:15.443Z,17.30
2018-09-18T01:40:20.410Z,17.30
2018-09-18T01:42:25.193Z,17.30
2018-09-18T01:44:30.033Z,17.30
2018-09-18T01:46:34.984Z,17.30
2018-09-18T01:48:40.141Z,17.40
2018-09-18T01:50:45.264Z,17.40
2018-09-18T01:52:50.270Z,17.40
2018-09-18T01:54:55.392Z,17.40
2018-09-18T01:57:00.562Z,17.40
2018-09-18T01:59:05.500Z,17.50
2018-09-18T02:01:10.588Z,17.40
2018-09-18T02:03:15.686Z,17.50
2018-09-18T02:05:20.891Z,17.40
2018-09-18T02:07:25.983Z,17.40
2018-09-18T02:09:31.084Z,17.40
2018-09-18T02:11:36.561Z,17.50
2018-09-18T02:13:42.550Z,17.40
2018-09-18T02:15:47.600Z,17.50
2018-09-18T02:17:52.733Z,17.50
2018-09-18T02:19:57.860Z,17.50
2018-09-18T02:22:02.847Z,17.50
2018-09-18T02:24:07.924Z,17.50
2018-09-18T02:26:12.778Z,17.50
2018-09-18T02:28:17.819Z,17.50
2018-09-18T02:30:22.883Z,17.40
2018-09-18T02:32:27.758Z,17.40
2018-09-18T02:34:32.669Z,17.40
2018-09-18T02:36:37.873Z,17.40
2018-09-18T02:38:42.894Z,17.50
2018-09-18T02:40:47.713Z,17.50
2018-09-18T02:42:52.901Z,17.50
2018-09-18T02:44:57.877Z,17.60
2018-09-18T02:47:03.058Z,17.50
2018-09-18T02:49:08.346Z,17.50
2018-09-18T02:51:13.367Z,17.50
2018-09-18T02:53:18.415Z,17.60
2018-09-18T02:55:23.488Z,17.50
2018-09-18T02:57:28.475Z,17.60
2018-09-18T02:59:33.472Z,17.60
2018-09-18T03:01:38.692Z,17.60
2018-09-18T03:03:44.078Z,17.60
2018-09-18T03:05:49.135Z,17.60
2018-09-18T03:07:54.193Z,17.60
2018-09-18T03:09:59.345Z,17.70
2018-09-18T03:12:04.428Z,17.60
2018-09-18T03:14:09.912Z,17.60
2018-09-18T03:16:14.986Z,17.60
2018-09-18T03:18:19.967Z,17.60
2018-09-18T03:20:24.931Z,17.60
2018-09-18T03:22:29.936Z,17.60
2018-09-18T03:24:34.690Z,17.60
2018-09-18T03:26:39.909Z,17.60
2018-09-18T03:28:45.062Z,17.60
2018-09-18T03:30:50.204Z,17.60
2018-09-18T03:32:55.469Z,17.60
2018-09-18T03:35:00.545Z,17.70
2018-09-18T03:37:05.381Z,17.60
2018-09-18T03:39:10.558Z,17.60
2018-09-18T03:41:16.001Z,17.60
2018-09-18T03:43:21.031Z,17.60
2018-09-18T03:45:26.000Z,17.70
2018-09-18T03:47:30.999Z,17.60
2018-09-18T03:49:36.032Z,17.70
2018-09-18T03:51:41.104Z,17.70
2018-09-18T03:53:46.021Z,17.70
2018-09-18T03:55:50.871Z,17.80
2018-09-18T03:57:55.711Z,17.70
2018-09-18T04:00:00.467Z,17.60
2018-09-18T04:02:05.346Z,17.60
2018-09-18T04:04:10.211Z,17.60
2018-09-18T04:06:15.195Z,17.50
2018-09-18T04:08:20.202Z,17.50
2018-09-18T04:10:25.382Z,17.60
2018-09-18T04:12:30.515Z,17.60
2018-09-18T04:14:35.503Z,17.60
2018-09-18T04:16:41.483Z,17.60
2018-09-18T04:18:47.617Z,17.60
2018-09-18T04:20:52.713Z,17.60
2018-09-18T04:22:59.404Z,17.60
2018-09-18T04:25:04.574Z,17.50
2018-09-18T04:27:10.542Z,17.60
2018-09-18T04:29:15.555Z,17.60
2018-09-18T04:31:20.605Z,17.60
2018-09-18T04:33:25.965Z,17.60
2018-09-18T04:35:30.967Z,17.60
2018-09-18T04:37:36.110Z,17.60
2018-09-18T04:39:41.969Z,17.70
2018-09-18T04:41:46.823Z,17.70
2018-09-18T04:43:51.654Z,17.60
2018-09-18T04:45:57.767Z,17.70
2018-09-18T04:48:03.180Z,17.70
2018-09-18T04:50:08.203Z,17.60
2018-09-18T04:52:12.963Z,17.70
2018-09-18T04:54:18.538Z,17.60
2018-09-18T04:56:23.370Z,17.60
2018-09-18T04:58:28.878Z,17.60
2018-09-18T05:00:33.781Z,17.70
2018-09-18T05:02:39.153Z,17.60
2018-09-18T05:04:44.066Z,17.60
2018-09-18T05:06:49.252Z,17.70
2018-09-18T05:08:54.122Z,17.70
2018-09-18T05:10:59.296Z,17.60
2018-09-18T05:13:06.436Z,17.70
2018-09-18T05:15:11.242Z,17.70
2018-09-18T05:17:16.635Z,17.70
2018-09-18T05:19:21.592Z,17.70
2018-09-18T05:21:26.569Z,17.70
2018-09-18T05:23:31.511Z,17.70
2018-09-18T05:25:36.412Z,17.80
2018-09-18T05:27:41.256Z,17.80
2018-09-18T05:29:46.395Z,17.80
2018-09-18T05:31:51.451Z,17.80
2018-09-18T05:33:56.656Z,17.70
2018-09-18T05:36:01.760Z,17.70
2018-09-18T05:38:06.988Z,17.80
2018-09-18T05:40:12.090Z,17.80
2018-09-18T05:42:17.218Z,17.70
2018-09-18T05:44:22.115Z,17.80
2018-09-18T05:46:26.963Z,17.80
2018-09-18T05:48:34.168Z,17.90
2018-09-18T05:50:38.893Z,18.00
2018-09-18T05:52:43.774Z,18.00
2018-09-18T05:54:48.592Z,18.00
2018-09-18T05:56:53.649Z,18.10
2018-09-18T05:58:58.500Z,18.20
2018-09-18T06:01:03.517Z,18.10
2018-09-18T06:03:08.543Z,18.20
2018-09-18T06:05:13.311Z,18.30
2018-09-18T06:07:18.456Z,18.20
2018-09-18T06:09:23.751Z,18.30
2018-09-18T06:11:28.640Z,18.20
2018-09-18T06:13:33.480Z,18.20
2018-09-18T06:15:38.611Z,18.30
2018-09-18T06:17:43.355Z,18.40
2018-09-18T06:19:48.122Z,18.30
2018-09-18T06:21:52.988Z,18.40
2018-09-18T06:23:58.030Z,18.40
2018-09-18T06:26:03.084Z,18.40
2018-09-18T06:28:08.065Z,18.50
2018-09-18T06:30:12.972Z,18.60
2018-09-18T06:32:18.111Z,18.70
2018-09-18T06:34:24.078Z,18.80
2018-09-18T06:36:29.274Z,18.70
2018-09-18T06:38:34.264Z,18.80
2018-09-18T06:40:39.368Z,18.80
2018-09-18T06:42:44.406Z,18.80
2018-09-18T06:44:49.455Z,18.90
2018-09-18T06:46:54.331Z,18.90
2018-09-18T06:48:59.255Z,19.00
2018-09-18T06:51:04.192Z,19.10
2018-09-18T06:53:09.119Z,19.10
2018-09-18T06:55:14.672Z,19.10
2018-09-18T06:57:20.065Z,19.10
2018-09-18T06:59:24.887Z,19.10
2018-09-18T07:01:29.942Z,19.10
2018-09-18T07:03:34.850Z,19.10
2018-09-18T07:05:39.838Z,19.10
2018-09-18T07:07:45.039Z,19.20
2018-09-18T07:09:50.284Z,19.30
2018-09-18T07:11:55.543Z,19.30
2018-09-18T07:14:00.985Z,19.40
2018-09-18T07:16:06.102Z,19.60
2018-09-18T07:18:11.268Z,19.60
2018-09-18T07:20:16.299Z,19.60
2018-09-18T07:22:21.207Z,19.60
2018-09-18T07:24:26.238Z,19.70
2018-09-18T07:26:31.091Z,19.80
2018-09-18T07:28:35.986Z,19.80
2018-09-18T07:30:40.851Z,19.80
2018-09-18T07:32:45.653Z,19.80
2018-09-18T07:34:50.422Z,19.80
2018-09-18T07:36:55.273Z,19.90
2018-09-18T07:39:00.106Z,19.90
2018-09-18T07:41:05.083Z,20.00
2018-09-18T07:43:10.115Z,20.00
2018-09-18T07:45:15.055Z,20.00
2018-09-18T07:47:19.905Z,20.10
2018-09-18T07:49:24.760Z,20.20
2018-09-18T07:51:29.964Z,20.20
2018-09-18T07:53:35.208Z,20.20
2018-09-18T07:55:40.050Z,20.40
2018-09-18T07:57:44.867Z,20.40
2018-09-18T07:59:49.742Z,20.30
2018-09-18T08:01:54.738Z,20.50
2018-09-18T08:03:59.511Z,20.70
2018-09-18T08:06:04.173Z,20.70
2018-09-18T08:08:09.019Z,20.70
2018-09-18T08:10:14.014Z,20.80
2018-09-18T08:12:18.947Z,21.00
2018-09-18T08:14:23.948Z,21.00
2018-09-18T08:16:28.963Z,21.00
2018-09-18T08:18:33.674Z,21.10
2018-09-18T08:20:38.442Z,21.30
2018-09-18T08:22:43.521Z,21.20
2018-09-18T08:24:48.589Z,21.40
2018-09-18T08:26:53.493Z,21.50
2018-09-18T08:28:58.248Z,21.50
2018-09-18T08:31:03.297Z,21.50
2018-09-18T08:33:08.171Z,21.60
2018-09-18T08:35:13.124Z,21.70
2018-09-18T08:37:18.035Z,21.70
2018-09-18T08:39:22.868Z,21.80
2018-09-18T08:41:27.677Z,22.00
2018-09-18T08:43:32.782Z,22.10
2018-09-18T08:45:37.832Z,22.00
2018-09-18T08:47:42.855Z,22.20
2018-09-18T08:49:47.555Z,22.30
2018-09-18T08:51:52.427Z,22.40
2018-09-18T08:53:57.389Z,22.40
2018-09-18T08:56:03.053Z,22.50
2018-09-18T08:58:08.288Z,22.60
2018-09-18T09:00:13.210Z,22.90
2018-09-18T09:02:18.040Z,22.90
2018-09-18T09:04:22.816Z,22.90
2018-09-18T09:06:27.718Z,22.90
2018-09-18T09:08:32.804Z,22.90
2018-09-18T09:10:37.658Z,23.00
2018-09-18T09:12:42.533Z,23.20
2018-09-18T09:14:47.533Z,23.10
2018-09-18T09:16:52.492Z,23.10
2018-09-18T09:18:57.333Z,23.20
2018-09-18T09:21:02.473Z,23.40
2018-09-18T09:23:07.499Z,23.50
2018-09-18T09:25:12.602Z,23.60
2018-09-18T09:27:17.753Z,23.70
2018-09-18T09:29:22.646Z,23.80
2018-09-18T09:31:27.538Z,23.80
2018-09-18T09:33:32.605Z,24.00
2018-09-18T09:35:37.446Z,24.10
2018-09-18T09:37:42.448Z,24.10
2018-09-18T09:39:47.506Z,24.20
2018-09-18T09:41:52.352Z,24.30
2018-09-18T09:43:57.247Z,24.40
2018-09-18T09:46:02.033Z,24.40
2018-09-18T09:48:07.146Z,24.40
2018-09-18T09:50:12.018Z,24.50
2018-09-18T09:52:16.851Z,24.50
2018-09-18T09:54:22.469Z,24.60
2018-09-18T09:56:27.659Z,24.70
2018-09-18T09:58:32.464Z,24.70
2018-09-18T10:00:41.435Z,24.70
2018-09-18T10:02:46.445Z,25.10
2018-09-18T10:04:51.468Z,25.00
2018-09-18T10:06:56.400Z,25.00
2018-09-18T10:09:01.411Z,25.20
2018-09-18T10:11:06.473Z,25.30
2018-09-18T10:13:11.337Z,25.40
2018-09-18T10:15:16.406Z,25.60
2018-09-18T10:17:21.339Z,25.50
2018-09-18T10:19:26.350Z,25.50
2018-09-18T10:21:31.177Z,25.50
2018-09-18T10:23:36.076Z,25.60
2018-09-18T10:25:40.850Z,25.60
2018-09-18T10:27:45.593Z,25.70
2018-09-18T10:29:51.223Z,25.80
2018-09-18T10:31:56.106Z,25.90
2018-09-18T10:34:01.218Z,25.90
2018-09-18T10:36:06.164Z,26.00
2018-09-18T10:38:11.141Z,26.00
2018-09-18T10:40:15.981Z,26.00
2018-09-18T10:42:20.915Z,26.10
2018-09-18T10:44:26.077Z,26.10
2018-09-18T10:46:31.017Z,26.30
2018-09-18T10:48:41.058Z,26.40
2018-09-18T10:50:45.989Z,26.40
2018-09-18T10:52:50.947Z,26.50
2018-09-18T10:54:55.755Z,26.70
2018-09-18T10:59:10.925Z,26.70
2018-09-18T11:01:15.770Z,26.90
2018-09-18T11:03:20.698Z,26.90
2018-09-18T11:05:25.692Z,26.90
2018-09-18T11:07:30.537Z,26.90
2018-09-18T11:09:35.379Z,26.90
2018-09-18T11:11:41.318Z,26.90
2018-09-18T11:13:46.322Z,26.90
2018-09-18T11:15:51.262Z,27.00
2018-09-18T11:17:56.146Z,27.40
2018-09-18T11:20:01.009Z,27.40
2018-09-18T11:22:05.848Z,27.40
2018-09-18T11:24:10.728Z,27.40
2018-09-18T11:26:15.494Z,27.50
2018-09-18T11:28:21.112Z,27.50
2018-09-18T11:30:26.006Z,27.50
2018-09-18T11:32:30.946Z,27.70
2018-09-18T11:34:35.890Z,27.70
2018-09-18T11:36:40.794Z,27.60
2018-09-18T11:38:45.608Z,27.60
2018-09-18T11:40:50.442Z,27.70
2018-09-18T11:42:55.337Z,27.80
2018-09-18T11:45:00.406Z,27.90
2018-09-18T11:47:05.295Z,28.00
2018-09-18T11:49:10.225Z,28.00
2018-09-18T11:51:15.185Z,28.00
2018-09-18T11:53:20.018Z,27.80
2018-09-18T11:55:24.857Z,27.90
2018-09-18T11:57:29.770Z,28.00
2018-09-18T11:59:34.614Z,28.00
2018-09-18T12:01:39.453Z,28.10
2018-09-18T12:03:44.261Z,28.30
2018-09-18T12:05:49.189Z,28.30
2018-09-18T12:07:54.043Z,28.20
2018-09-18T12:09:59.047Z,28.30
2018-09-18T12:12:04.019Z,28.30
2018-09-18T12:14:08.926Z,28.30
2018-09-18T12:16:13.645Z,28.30
2018-09-18T12:18:18.446Z,28.50
2018-09-18T12:20:23.266Z,28.70
2018-09-18T12:22:28.167Z,28.70
2018-09-18T12:24:32.956Z,29.00
2018-09-18T12:26:37.747Z,29.10
2018-09-18T12:28:42.576Z,29.10
2018-09-18T12:30:47.357Z,29.10
2018-09-18T12:32:52.277Z,29.10
2018-09-18T12:34:57.061Z,28.90
2018-09-18T12:37:01.783Z,28.90
2018-09-18T12:39:09.577Z,28.90
2018-09-18T12:41:14.417Z,29.00
2018-09-18T12:43:19.270Z,29.20
2018-09-18T12:45:24.461Z,29.20
2018-09-18T12:47:29.262Z,29.30
2018-09-18T12:49:34.177Z,29.30
2018-09-18T12:51:38.819Z,29.20
2018-09-18T12:53:43.717Z,29.20
2018-09-18T12:55:49.371Z,29.10
2018-09-18T12:57:54.312Z,29.20
2018-09-18T12:59:59.119Z,29.10
2018-09-18T13:02:04.026Z,29.20
2018-09-18T13:04:08.856Z,29.30
2018-09-18T13:06:13.755Z,29.40
2018-09-18T13:08:18.557Z,29.50
2018-09-18T13:10:23.403Z,29.40
2018-09-18T13:12:28.255Z,29.40
2018-09-18T13:14:33.074Z,29.50
2018-09-18T13:16:38.008Z,29.50
2018-09-18T13:18:43.249Z,29.40
2018-09-18T13:20:48.047Z,29.50
2018-09-18T13:22:52.939Z,29.50
2018-09-18T13:24:57.725Z,29.60
2018-09-18T13:27:02.495Z,29.70
2018-09-18T13:29:07.442Z,29.70
2018-09-18T13:31:12.416Z,29.70
2018-09-18T13:33:17.340Z,29.80
2018-09-18T13:35:22.243Z,29.80
2018-09-18T13:37:27.646Z,29.80
2018-09-18T13:39:32.566Z,29.80
2018-09-18T13:41:37.495Z,29.80
2018-09-18T13:43:42.420Z,30.00
2018-09-18T13:45:47.717Z,29.90
2018-09-18T13:47:52.560Z,29.80
2018-09-18T13:49:57.394Z,29.80
2018-09-18T13:52:02.278Z,30.00
2018-09-18T13:54:07.241Z,30.00
2018-09-18T13:56:12.253Z,29.90
2018-09-18T13:58:16.953Z,30.00
2018-09-18T14:00:21.914Z,30.00
2018-09-18T14:02:27.064Z,29.90
2018-09-18T14:04:31.913Z,30.00
2018-09-18T14:06:36.738Z,30.10
2018-09-18T14:08:41.540Z,30.10
2018-09-18T14:10:46.489Z,30.10
2018-09-18T14:12:51.150Z,30.10
2018-09-18T14:14:56.036Z,30.00
2018-09-18T14:17:00.773Z,29.90
2018-09-18T14:19:05.648Z,30.10
2018-09-18T14:21:10.929Z,30.20
2018-09-18T14:23:15.772Z,30.10
2018-09-18T14:25:20.686Z,30.10
2018-09-18T14:27:25.831Z,30.00
2018-09-18T14:29:30.774Z,30.10
2018-09-18T14:31:35.835Z,30.10
2018-09-18T14:33:40.588Z,30.00
2018-09-18T14:35:45.480Z,29.90
2018-09-18T14:37:50.490Z,29.90
2018-09-18T14:39:55.289Z,29.90
2018-09-18T14:42:00.101Z,29.90
2018-09-18T14:44:04.805Z,29.90
2018-09-18T14:46:09.968Z,29.90
2018-09-18T14:48:14.957Z,30.00
2018-09-18T14:50:19.833Z,30.00
2018-09-18T14:52:24.720Z,30.00
2018-09-18T14:54:29.716Z,30.00
2018-09-18T14:56:34.649Z,30.10
2018-09-18T14:58:39.566Z,30.00
2018-09-18T15:00:44.438Z,29.90
2018-09-18T15:02:49.399Z,29.80
2018-09-18T15:04:54.315Z,29.80
2018-09-18T15:06:59.253Z,29.70
2018-09-18T15:09:04.292Z,29.70
2018-09-18T15:11:09.160Z,29.80
2018-09-18T15:13:14.617Z,29.80
2018-09-18T15:15:19.493Z,29.70
2018-09-18T15:17:24.461Z,29.80
2018-09-18T15:19:29.340Z,29.60
2018-09-18T15:21:34.532Z,29.80
2018-09-18T15:23:39.909Z,29.70
2018-09-18T15:25:44.900Z,29.70
2018-09-18T15:27:49.839Z,29.90
2018-09-18T15:29:54.736Z,29.80
2018-09-18T15:31:59.651Z,29.80
2018-09-18T15:34:04.476Z,29.90
2018-09-18T15:36:09.731Z,29.70
2018-09-18T15:38:14.638Z,29.60
2018-09-18T15:40:19.744Z,29.60
2018-09-18T15:42:24.691Z,29.50
2018-09-18T15:44:29.437Z,29.70
2018-09-18T15:46:34.681Z,29.50
2018-09-18T15:48:39.510Z,29.50
2018-09-18T15:50:44.303Z,29.40
2018-09-18T15:52:49.132Z,29.30
2018-09-18T15:54:54.302Z,29.40
2018-09-18T15:56:59.058Z,29.30
2018-09-18T15:59:04.149Z,29.40
2018-09-18T16:01:09.005Z,29.30
2018-09-18T16:03:13.815Z,29.20
2018-09-18T16:05:18.758Z,29.20
2018-09-18T16:07:23.638Z,29.30
2018-09-18T16:09:28.886Z,29.10
2018-09-18T16:11:46.307Z,29.10
2018-09-18T16:13:51.454Z,29.10
2018-09-18T16:15:56.434Z,29.10
2018-09-18T16:18:01.292Z,29.10
2018-09-18T16:20:06.273Z,29.40
2018-09-18T16:22:11.260Z,29.60
2018-09-18T16:24:17.164Z,29.50
2018-09-18T16:26:22.011Z,29.40
2018-09-18T16:28:26.865Z,29.10
2018-09-18T16:30:32.078Z,29.00
2018-09-18T16:32:36.943Z,28.90
2018-09-18T16:34:41.928Z,28.80
2018-09-18T16:36:46.970Z,28.70
2018-09-18T16:38:51.931Z,28.70
2018-09-18T16:40:57.348Z,28.60
2018-09-18T16:43:02.263Z,28.80
2018-09-18T16:45:07.438Z,28.80
2018-09-18T16:47:12.603Z,28.70
2018-09-18T16:49:17.506Z,28.50
2018-09-18T16:51:23.066Z,28.30
2018-09-18T16:53:31.363Z,28.20
2018-09-18T16:55:36.690Z,28.30
2018-09-18T16:57:41.767Z,28.20
2018-09-18T16:59:48.243Z,28.20
2018-09-18T17:01:54.090Z,28.00
2018-09-18T17:04:00.034Z,27.90
2018-09-18T17:06:08.200Z,27.90
2018-09-18T17:08:13.477Z,28.00
2018-09-18T17:10:18.701Z,28.00
2018-09-18T17:12:23.865Z,27.90
2018-09-18T17:14:28.832Z,27.80
2018-09-18T17:16:34.056Z,27.80
2018-09-18T17:18:39.074Z,27.60
2018-09-18T17:20:44.116Z,27.50
2018-09-18T17:22:49.044Z,27.40
2018-09-18T17:24:53.970Z,27.20
2018-09-18T17:26:58.914Z,27.10
2018-09-18T17:29:03.913Z,27.10
2018-09-18T17:31:09.550Z,27.10
2018-09-18T17:33:14.341Z,27.00
2018-09-18T17:35:19.573Z,27.00
2018-09-18T17:37:24.439Z,26.90
2018-09-18T17:39:29.488Z,26.70
2018-09-18T17:41:34.251Z,26.70
2018-09-18T17:43:39.031Z,26.60
2018-09-18T17:45:44.072Z,26.50
2018-09-18T17:49:58.639Z,26.40
2018-09-18T17:52:03.598Z,26.40
2018-09-18T17:54:08.516Z,26.30
2018-09-18T17:56:13.429Z,26.30
2018-09-18T17:58:19.057Z,26.20
2018-09-18T18:00:23.819Z,26.00
2018-09-18T18:02:29.185Z,26.00
2018-09-18T18:04:34.725Z,26.00
2018-09-18T18:06:40.581Z,25.90
2018-09-18T18:08:45.576Z,25.90
2018-09-18T18:10:50.744Z,25.70
2018-09-18T18:12:55.791Z,25.50
2018-09-18T18:15:00.727Z,25.40
2018-09-18T18:17:07.436Z,25.40
2018-09-18T18:19:12.879Z,25.40
2018-09-18T18:21:17.971Z,25.40
2018-09-18T18:23:23.738Z,25.30
2018-09-18T18:25:30.042Z,25.20
2018-09-18T18:27:35.803Z,25.30
2018-09-18T18:29:40.785Z,25.30
2018-09-18T18:31:46.009Z,25.20
2018-09-18T18:33:51.413Z,25.10
2018-09-18T18:35:56.568Z,25.10
2018-09-18T18:38:02.112Z,25.00
2018-09-18T18:40:08.501Z,24.90
2018-09-18T18:42:14.632Z,24.80
2018-09-18T18:44:21.096Z,24.90
2018-09-18T18:46:27.248Z,24.80
2018-09-18T18:48:32.694Z,24.70
2018-09-18T18:50:38.372Z,24.80
2018-09-18T18:52:43.758Z,24.90
2018-09-18T18:54:51.474Z,24.80
2018-09-18T18:56:57.606Z,24.70
2018-09-18T18:59:02.569Z,24.70
2018-09-18T19:01:09.650Z,24.60
2018-09-18T19:03:15.125Z,24.50
2018-09-18T19:05:20.474Z,24.50
2018-09-18T19:07:25.512Z,24.60
2018-09-18T19:09:31.937Z,24.50
2018-09-18T19:11:37.035Z,24.50
2018-09-18T19:13:43.012Z,24.30
2018-09-18T19:15:51.508Z,24.20
2018-09-18T19:17:56.835Z,24.10
2018-09-18T19:20:03.686Z,24.10
2018-09-18T19:22:11.090Z,24.10
2018-09-18T19:24:19.955Z,24.00
2018-09-18T19:26:26.458Z,23.80
2018-09-18T19:28:35.360Z,23.70
2018-09-18T19:30:44.987Z,23.70
2018-09-18T19:32:51.571Z,23.70
2018-09-18T19:35:00.486Z,23.80
2018-09-18T19:37:09.471Z,23.70
2018-09-18T19:39:16.232Z,23.70
2018-09-18T19:41:22.720Z,23.70
2018-09-18T19:43:30.526Z,23.60
2018-09-18T19:45:36.030Z,23.50
2018-09-18T19:47:45.559Z,23.50
2018-09-18T19:49:52.143Z,23.30
2018-09-18T19:51:59.491Z,23.40
2018-09-18T19:54:06.259Z,23.20
2018-09-18T19:56:11.602Z,23.20
2018-09-18T19:58:17.671Z,23.20
2018-09-18T20:00:24.901Z,23.40
2018-09-18T20:02:32.981Z,23.20
2018-09-18T20:04:38.529Z,23.10
2018-09-18T20:06:49.695Z,23.10
2018-09-18T20:08:57.849Z,23.10
2018-09-18T20:11:03.869Z,22.90
2018-09-18T20:13:12.051Z,22.90
2018-09-18T20:15:19.487Z,22.80
2018-09-18T20:17:25.249Z,22.70
2018-09-18T20:19:31.353Z,22.70
2018-09-18T20:21:40.837Z,22.60
2018-09-18T20:23:46.367Z,22.60
2018-09-18T20:25:58.572Z,22.70
2018-09-18T20:28:12.232Z,22.60
2018-09-18T20:30:25.066Z,22.60
2018-09-18T20:32:35.571Z,22.50
2018-09-18T20:34:44.962Z,22.50
2018-09-18T20:36:55.108Z,22.40
2018-09-18T20:39:04.383Z,22.40
2018-09-18T20:41:12.899Z,22.30
2018-09-18T20:43:22.396Z,22.20
2018-09-18T20:45:31.878Z,22.10
2018-09-18T20:47:41.935Z,22.10
2018-09-18T20:49:51.163Z,22.10
2018-09-18T20:52:01.136Z,22.00
2018-09-18T20:54:10.093Z,21.90
2018-09-18T20:56:17.318Z,21.90
2018-09-18T20:58:24.532Z,21.80
2018-09-18T21:00:31.419Z,21.80
2018-09-18T21:02:37.209Z,21.80
2018-09-18T21:04:43.900Z,21.70
2018-09-18T21:06:51.957Z,21.60
2018-09-18T21:08:58.055Z,21.60
2018-09-18T21:11:05.145Z,21.50
2018-09-18T21:13:12.911Z,21.40
2018-09-18T21:15:22.378Z,21.40
2018-09-18T21:17:27.497Z,21.30
2018-09-18T21:19:33.708Z,21.30
2018-09-18T21:21:40.192Z,21.30
2018-09-18T21:23:45.819Z,21.20
2018-09-18T21:26:19.477Z,21.30
2018-09-18T21:28:25.461Z,21.30
2018-09-18T21:30:30.820Z,21.40
2018-09-18T21:32:35.746Z,21.40
2018-09-18T21:34:40.532Z,21.40
2018-09-18T21:36:45.354Z,21.50
2018-09-18T21:38:50.288Z,21.60
2018-09-18T21:40:55.397Z,21.50
2018-09-18T21:43:00.242Z,21.50
2018-09-18T21:45:05.118Z,21.40
2018-09-18T21:47:13.631Z,21.30
2018-09-18T21:49:18.445Z,21.30
2018-09-18T21:51:23.494Z,21.40
2018-09-18T21:53:28.470Z,21.50
2018-09-18T21:55:33.328Z,21.50
2018-09-18T21:57:38.385Z,21.40
2018-09-18T21:59:44.171Z,21.50
2018-09-18T22:01:49.019Z,21.50
2018-09-18T22:03:54.027Z,21.40
2018-09-18T22:05:58.908Z,21.40
2018-09-18T22:08:04.108Z,21.50
2018-09-18T22:10:09.140Z,21.40
2018-09-18T22:12:14.054Z,21.40
2018-09-18T22:14:18.745Z,21.50
2018-09-18T22:16:23.555Z,21.40
2018-09-18T22:18:28.286Z,21.40
2018-09-18T22:20:33.058Z,21.40
2018-09-18T22:22:37.757Z,21.30
2018-09-18T22:24:42.441Z,21.30
2018-09-18T22:26:47.141Z,21.20
2018-09-18T22:28:51.820Z,21.10
2018-09-18T22:30:56.603Z,21.00
2018-09-18T22:33:01.378Z,21.20
2018-09-18T22:35:06.156Z,21.20
2018-09-18T22:37:10.884Z,21.20
2018-09-18T22:39:15.613Z,21.00
2018-09-18T22:41:20.319Z,20.90
2018-09-18T22:43:25.211Z,20.90
2018-09-18T22:45:30.121Z,20.80
2018-09-18T22:47:35.160Z,20.80
2018-09-18T22:49:39.939Z,20.70
2018-09-18T22:51:44.659Z,20.60
2018-09-18T22:53:49.500Z,20.60
2018-09-18T22:55:54.314Z,20.50
2018-09-18T22:57:59.218Z,20.40
2018-09-18T23:00:04.095Z,20.40
2018-09-18T23:02:08.986Z,20.40
2018-09-18T23:04:13.787Z,20.40
2018-09-18T23:06:18.565Z,20.40
2018-09-18T23:08:23.341Z,20.30
2018-09-18T23:10:28.367Z,20.30
2018-09-18T23:12:33.168Z,20.20
2018-09-18T23:14:37.920Z,20.20
2018-09-18T23:16:43.546Z,20.20
2018-09-18T23:18:48.484Z,20.20
2018-09-18T23:20:53.173Z,20.20
2018-09-18T23:22:57.834Z,20.10
2018-09-18T23:25:02.580Z,20.10
2018-09-18T23:27:07.407Z,20.00
2018-09-18T23:29:12.024Z,20.10
2018-09-18T23:31:16.748Z,20.20
2018-09-18T23:33:21.590Z,20.30
2018-09-18T23:35:26.275Z,20.30
2018-09-18T23:37:31.031Z,20.40
2018-09-18T23:39:35.776Z,20.30
2018-09-18T23:41:40.512Z,20.20
2018-09-18T23:43:45.516Z,20.20
2018-09-18T23:45:50.679Z,20.10
2018-09-18T23:47:55.378Z,20.00
2018-09-18T23:50:00.155Z,20.00
2018-09-18T23:52:05.006Z,19.90
2018-09-18T23:54:09.661Z,19.90
2018-09-18T23:56:14.322Z,19.90
2018-09-18T23:58:19.045Z,19.80
